createdAt,value
2018-05-08T00:01:51.100Z,13.30
2018-05-08T00:04:18.628Z,13.10
2018-05-08T00:06:47.206Z,12.80
2018-05-08T00:09:15.488Z,12.70
2018-05-08T00:11:43.778Z,12.60
2018-05-08T00:14:11.355Z,12.60
2018-05-08T00:16:38.877Z,12.50
2018-05-08T00:19:07.186Z,12.50
2018-05-08T00:21:34.738Z,12.40
2018-05-08T00:24:02.469Z,12.40
2018-05-08T00:26:30.781Z,12.10
2018-05-08T00:28:58.328Z,12.10
2018-05-08T00:31:25.866Z,12.00
2018-05-08T00:33:54.147Z,12.10
2018-05-08T00:36:22.477Z,12.20
2018-05-08T00:38:49.989Z,12.10
2018-05-08T00:41:17.511Z,12.30
2018-05-08T00:43:45.084Z,12.40
2018-05-08T00:46:13.370Z,12.40
2018-05-08T00:48:41.650Z,12.40
2018-05-08T00:51:09.194Z,12.30
2018-05-08T00:53:37.469Z,12.00
2018-05-08T00:56:05.763Z,11.90
2018-05-08T00:58:33.314Z,11.80
2018-05-08T01:01:01.723Z,11.90
2018-05-08T01:03:29.252Z,11.80
2018-05-08T01:05:57.557Z,11.70
2018-05-08T01:08:25.079Z,11.70
2018-05-08T01:10:53.385Z,11.70
2018-05-08T01:13:20.967Z,11.60
2018-05-08T01:15:48.532Z,11.60
2018-05-08T01:18:16.047Z,11.40
2018-05-08T01:20:43.599Z,11.30
2018-05-08T01:23:11.880Z,11.20
2018-05-08T01:25:40.172Z,11.50
2018-05-08T01:28:08.089Z,11.40
2018-05-08T01:30:35.616Z,11.70
2018-05-08T01:33:03.149Z,12.00
2018-05-08T01:35:30.704Z,12.30
2018-05-08T01:37:58.217Z,12.50
2018-05-08T01:40:25.747Z,12.60
2018-05-08T01:42:53.308Z,12.50
2018-05-08T01:45:20.845Z,12.60
2018-05-08T01:47:48.378Z,12.70
2018-05-08T01:50:17.344Z,12.90
2018-05-08T01:52:44.876Z,12.80
2018-05-08T01:55:12.392Z,13.00
2018-05-08T01:57:39.950Z,13.00
2018-05-08T02:00:07.453Z,12.90
2018-05-08T02:02:34.964Z,12.90
2018-05-08T02:05:02.507Z,12.90
2018-05-08T02:07:30.782Z,12.80
2018-05-08T02:09:59.058Z,12.70
2018-05-08T02:12:27.375Z,12.80
2018-05-08T02:14:54.899Z,12.70
2018-05-08T02:17:23.193Z,12.90
2018-05-08T02:19:50.744Z,12.90
2018-05-08T02:22:18.279Z,12.90
2018-05-08T02:24:46.578Z,12.80
2018-05-08T02:27:14.125Z,12.70
2018-05-08T02:29:42.422Z,12.70
2018-05-08T02:32:09.939Z,12.60
2018-05-08T02:34:37.480Z,12.60
2018-05-08T02:37:04.995Z,12.50
2018-05-08T02:39:32.510Z,12.50
2018-05-08T02:42:00.064Z,12.40
2018-05-08T02:44:27.589Z,12.50
2018-05-08T02:46:55.124Z,12.40
2018-05-08T02:49:22.672Z,12.30
2018-05-08T02:51:50.218Z,12.10
2018-05-08T02:54:18.507Z,11.80
2018-05-08T02:56:46.411Z,11.80
2018-05-08T02:59:13.946Z,11.80
2018-05-08T03:01:41.533Z,11.80
2018-05-08T03:04:09.082Z,11.90
2018-05-08T03:06:36.632Z,11.90
2018-05-08T03:09:04.160Z,11.90
2018-05-08T03:11:32.480Z,11.80
2018-05-08T03:13:59.992Z,11.80
2018-05-08T03:16:28.276Z,11.50
2018-05-08T03:18:55.867Z,11.50
2018-05-08T03:21:23.458Z,11.30
2018-05-08T03:23:50.981Z,11.30
2018-05-08T03:26:18.565Z,11.30
2018-05-08T03:28:46.094Z,11.30
2018-05-08T03:31:14.172Z,11.20
2018-05-08T03:33:41.722Z,11.10
2018-05-08T03:36:09.238Z,11.00
2018-05-08T03:38:37.540Z,11.00
2018-05-08T03:41:05.931Z,10.90
2018-05-08T03:43:33.463Z,11.10
2018-05-08T03:46:01.744Z,11.00
2018-05-08T03:48:30.060Z,11.10
2018-05-08T03:50:58.437Z,11.00
2018-05-08T03:53:25.958Z,11.00
2018-05-08T03:55:53.506Z,10.90
2018-05-08T03:58:21.794Z,10.70
2018-05-08T04:01:01.262Z,10.70
2018-05-08T04:03:40.611Z,10.80
2018-05-08T04:06:11.860Z,10.80
2018-05-08T04:08:39.378Z,10.80
2018-05-08T04:11:06.905Z,10.80
2018-05-08T04:13:35.205Z,10.70
2018-05-08T04:16:02.760Z,10.60
2018-05-08T04:18:30.352Z,10.60
2018-05-08T04:20:57.989Z,10.60
2018-05-08T04:23:25.451Z,10.60
2018-05-08T04:25:52.965Z,10.80
2018-05-08T04:28:20.587Z,11.00
2018-05-08T04:30:48.128Z,11.00
2018-05-08T04:33:15.644Z,11.10
2018-05-08T04:35:43.194Z,11.10
2018-05-08T04:38:10.705Z,11.20
2018-05-08T04:40:38.228Z,11.40
2018-05-08T04:43:06.538Z,11.50
2018-05-08T04:45:34.078Z,11.50
2018-05-08T04:48:01.812Z,11.70
2018-05-08T04:50:29.357Z,11.90
2018-05-08T04:52:56.881Z,12.20
2018-05-08T04:55:24.401Z,12.40
2018-05-08T04:57:52.723Z,12.70
2018-05-08T05:00:20.248Z,12.60
2018-05-08T05:02:48.631Z,13.00
2018-05-08T05:05:16.204Z,13.00
2018-05-08T05:07:43.768Z,13.10
2018-05-08T05:10:11.339Z,13.30
2018-05-08T05:12:38.888Z,13.40
2018-05-08T05:15:06.454Z,13.50
2018-05-08T05:17:33.994Z,13.50
2018-05-08T05:20:01.538Z,13.50
2018-05-08T05:22:29.136Z,13.70
2018-05-08T05:24:56.664Z,13.90
2018-05-08T05:27:24.233Z,14.10
2018-05-08T05:29:51.786Z,14.30
2018-05-08T05:32:19.319Z,14.40
2018-05-08T05:34:48.022Z,14.70
2018-05-08T05:37:15.604Z,14.60
2018-05-08T05:39:43.165Z,14.80
2018-05-08T05:42:10.719Z,14.90
2018-05-08T05:44:38.239Z,15.00
2018-05-08T05:47:06.536Z,15.30
2018-05-08T05:49:34.096Z,15.20
2018-05-08T05:52:01.678Z,15.40
2018-05-08T05:54:29.209Z,15.50
2018-05-08T05:56:56.759Z,15.70
2018-05-08T05:59:24.267Z,15.80
2018-05-08T06:01:51.793Z,15.90
2018-05-08T06:04:19.347Z,16.00
2018-05-08T06:06:46.879Z,16.20
2018-05-08T06:09:15.157Z,16.50
2018-05-08T06:11:43.463Z,16.70
2018-05-08T06:14:11.021Z,16.60
2018-05-08T06:16:38.545Z,16.80
2018-05-08T06:19:06.867Z,17.00
2018-05-08T06:21:34.376Z,16.90
2018-05-08T06:24:02.705Z,17.20
2018-05-08T06:26:30.448Z,17.10
2018-05-08T06:28:57.902Z,17.20
2018-05-08T06:31:25.442Z,17.30
2018-05-08T06:33:53.746Z,17.50
2018-05-08T06:36:21.272Z,17.50
2018-05-08T06:38:48.798Z,17.70
2018-05-08T06:41:16.337Z,17.80
2018-05-08T06:43:43.863Z,17.90
2018-05-08T06:46:11.374Z,18.10
2018-05-08T06:48:38.917Z,18.20
2018-05-08T06:51:06.433Z,18.30
2018-05-08T06:53:33.957Z,18.30
2018-05-08T06:56:01.511Z,18.30
2018-05-08T06:58:29.023Z,18.30
2018-05-08T07:00:56.534Z,18.40
2018-05-08T07:03:24.089Z,18.50
2018-05-08T07:05:51.716Z,18.60
2018-05-08T07:08:19.248Z,18.70
2018-05-08T07:10:46.831Z,18.70
2018-05-08T07:13:14.369Z,18.80
2018-05-08T07:15:42.006Z,18.90
2018-05-08T07:18:09.480Z,19.00
2018-05-08T07:20:37.309Z,19.20
2018-05-08T07:23:04.819Z,19.30
2018-05-08T07:25:32.360Z,19.50
2018-05-08T07:27:59.873Z,19.60
2018-05-08T07:30:27.505Z,19.70
2018-05-08T07:32:55.051Z,19.80
2018-05-08T07:35:22.571Z,19.90
2018-05-08T07:37:50.872Z,20.00
2018-05-08T07:40:18.429Z,20.00
2018-05-08T07:42:45.964Z,20.10
2018-05-08T07:45:14.278Z,20.20
2018-05-08T07:47:41.824Z,20.20
2018-05-08T07:50:09.395Z,20.40
2018-05-08T07:52:36.953Z,20.50
2018-05-08T07:55:04.544Z,20.60
2018-05-08T07:57:32.194Z,20.70
2018-05-08T07:59:59.736Z,20.80
2018-05-08T08:02:27.300Z,20.90
2018-05-08T08:04:54.825Z,21.10
2018-05-08T08:07:23.102Z,21.30
2018-05-08T08:09:50.669Z,21.30
2018-05-08T08:12:18.497Z,21.50
2018-05-08T08:14:45.970Z,21.60
2018-05-08T08:17:14.283Z,21.80
2018-05-08T08:19:41.803Z,21.80
2018-05-08T08:22:10.181Z,22.10
2018-05-08T08:24:38.499Z,22.20
2018-05-08T08:27:06.009Z,22.10
2018-05-08T08:29:33.524Z,22.30
2018-05-08T08:32:01.080Z,22.40
2018-05-08T08:34:28.601Z,22.50
2018-05-08T08:36:56.891Z,22.60
2018-05-08T08:39:24.540Z,22.60
2018-05-08T08:41:52.122Z,22.80
2018-05-08T08:44:19.698Z,22.80
2018-05-08T08:46:47.287Z,22.90
2018-05-08T08:49:14.815Z,23.10
2018-05-08T08:51:42.355Z,23.20
2018-05-08T08:54:09.934Z,23.30
2018-05-08T08:56:37.456Z,23.40
2018-05-08T08:59:05.058Z,23.40
2018-05-08T09:01:32.702Z,23.50
2018-05-08T09:04:00.312Z,23.50
2018-05-08T09:06:27.818Z,23.60
2018-05-08T09:08:55.372Z,23.80
2018-05-08T09:11:22.906Z,23.90
2018-05-08T09:13:50.459Z,24.00
2018-05-08T09:16:18.777Z,24.10
2018-05-08T09:18:46.322Z,24.10
2018-05-08T09:21:13.846Z,24.20
2018-05-08T09:23:42.167Z,24.50
2018-05-08T09:26:09.682Z,24.40
2018-05-08T09:28:38.207Z,24.60
2018-05-08T09:31:05.742Z,24.50
2018-05-08T09:33:33.272Z,24.70
2018-05-08T09:36:01.715Z,24.90
2018-05-08T09:38:29.274Z,24.80
2018-05-08T09:40:56.896Z,24.90
2018-05-08T09:43:24.357Z,24.90
2018-05-08T09:45:51.935Z,25.00
2018-05-08T09:48:19.464Z,25.10
2018-05-08T09:50:46.997Z,25.20
2018-05-08T09:53:14.544Z,25.30
2018-05-08T09:55:42.179Z,25.30
2018-05-08T09:58:09.697Z,25.30
2018-05-08T10:00:38.026Z,25.40
2018-05-08T10:03:06.605Z,25.30
2018-05-08T10:05:34.117Z,25.60
2018-05-08T10:08:01.918Z,25.70
2018-05-08T10:10:29.448Z,25.50
2018-05-08T10:12:57.277Z,25.70
2018-05-08T10:15:24.829Z,25.80
2018-05-08T10:17:52.352Z,25.80
2018-05-08T10:20:19.862Z,25.90
2018-05-08T10:22:48.206Z,26.10
2018-05-08T10:25:15.722Z,26.00
2018-05-08T10:27:43.256Z,26.10
2018-05-08T10:30:11.579Z,26.50
2018-05-08T10:32:39.108Z,26.40
2018-05-08T10:35:06.692Z,26.60
2018-05-08T10:37:34.243Z,26.60
2018-05-08T10:40:01.767Z,26.60
2018-05-08T10:42:30.084Z,26.60
2018-05-08T10:44:57.639Z,26.60
2018-05-08T10:47:25.157Z,26.40
2018-05-08T10:49:53.984Z,26.50
2018-05-08T10:52:21.586Z,26.50
2018-05-08T10:54:49.305Z,26.40
2018-05-08T10:57:16.904Z,26.60
2018-05-08T10:59:44.599Z,26.80
2018-05-08T11:02:12.207Z,26.80
2018-05-08T11:04:39.791Z,26.90
2018-05-08T11:07:07.362Z,26.90
2018-05-08T11:09:35.649Z,26.90
2018-05-08T11:12:03.958Z,27.10
2018-05-08T11:14:31.621Z,27.10
2018-05-08T11:16:59.178Z,27.20
2018-05-08T11:19:26.715Z,27.30
2018-05-08T11:21:54.359Z,27.50
2018-05-08T11:24:22.652Z,27.70
2018-05-08T11:26:50.971Z,27.60
2018-05-08T11:29:18.534Z,27.60
2018-05-08T11:31:46.046Z,27.60
2018-05-08T11:34:13.754Z,27.70
2018-05-08T11:36:41.314Z,27.80
2018-05-08T11:39:08.851Z,27.70
2018-05-08T11:41:36.485Z,27.80
2018-05-08T11:44:04.107Z,27.90
2018-05-08T11:46:31.623Z,28.10
2018-05-08T11:49:00.108Z,28.10
2018-05-08T11:51:27.827Z,28.10
2018-05-08T11:53:55.326Z,28.20
2018-05-08T11:56:22.844Z,28.30
2018-05-08T11:58:51.150Z,28.60
2018-05-08T12:01:18.666Z,28.50
2018-05-08T12:03:46.857Z,28.60
2018-05-08T12:06:26.687Z,28.50
2018-05-08T12:08:54.992Z,28.20
2018-05-08T12:11:25.559Z,28.10
2018-05-08T12:13:53.115Z,28.50
2018-05-08T12:16:20.664Z,28.60
2018-05-08T12:18:48.174Z,28.60
2018-05-08T12:21:16.648Z,29.50
2018-05-08T12:23:44.972Z,30.10
2018-05-08T12:26:12.486Z,30.00
2018-05-08T12:28:40.036Z,30.90
2018-05-08T12:31:08.363Z,32.40
2018-05-08T12:33:35.897Z,32.30
2018-05-08T12:36:04.309Z,33.40
2018-05-08T12:38:31.861Z,33.30
2018-05-08T12:40:59.400Z,33.50
2018-05-08T12:43:27.001Z,34.00
2018-05-08T12:45:54.487Z,34.40
2018-05-08T12:48:22.112Z,34.90
2018-05-08T12:50:49.653Z,35.30
2018-05-08T12:53:17.183Z,35.20
2018-05-08T12:55:48.378Z,36.20
2018-05-08T12:58:16.127Z,36.10
2018-05-08T13:00:43.641Z,36.20
2018-05-08T13:03:11.921Z,36.60
2018-05-08T13:05:40.258Z,34.40
2018-05-08T13:08:07.783Z,34.30
2018-05-08T13:10:35.346Z,34.90
2018-05-08T13:13:02.910Z,34.80
2018-05-08T13:15:30.473Z,35.00
2018-05-08T13:17:58.760Z,35.80
2018-05-08T13:20:26.311Z,36.10
2018-05-08T13:22:53.879Z,37.20
2018-05-08T13:25:21.433Z,36.80
2018-05-08T13:27:49.071Z,36.40
2018-05-08T13:30:16.586Z,36.10
2018-05-08T13:32:44.468Z,36.20
2018-05-08T13:35:12.795Z,35.70
2018-05-08T13:37:40.347Z,35.70
2018-05-08T13:40:07.913Z,35.60
2018-05-08T13:42:35.570Z,35.80
2018-05-08T13:45:03.093Z,36.60
2018-05-08T13:47:30.667Z,36.40
2018-05-08T13:49:58.222Z,35.50
2018-05-08T13:52:25.738Z,35.40
2018-05-08T13:54:53.262Z,36.10
2018-05-08T13:57:20.836Z,36.00
2018-05-08T13:59:48.819Z,36.80
2018-05-08T14:02:17.253Z,37.40
2018-05-08T14:04:44.793Z,38.30
2018-05-08T14:07:12.310Z,37.60
2018-05-08T14:09:40.589Z,37.60
2018-05-08T14:12:08.150Z,37.50
2018-05-08T14:14:35.678Z,37.70
2018-05-08T14:17:03.231Z,37.30
2018-05-08T14:19:30.779Z,37.40
2018-05-08T14:21:58.311Z,35.90
2018-05-08T14:24:26.599Z,37.40
2018-05-08T14:26:54.147Z,37.40
2018-05-08T14:29:22.450Z,37.70
2018-05-08T14:31:49.962Z,37.60
2018-05-08T14:34:18.278Z,38.00
2018-05-08T14:36:45.789Z,38.00
2018-05-08T14:39:13.322Z,37.70
2018-05-08T14:41:40.882Z,37.70
2018-05-08T14:44:08.423Z,37.70
2018-05-08T14:46:35.939Z,37.90
2018-05-08T14:49:04.270Z,37.40
2018-05-08T14:51:31.806Z,37.40
2018-05-08T14:53:59.362Z,37.10
2018-05-08T14:56:26.913Z,36.30
2018-05-08T14:58:54.493Z,37.20
2018-05-08T15:01:22.044Z,36.90
2018-05-08T15:03:49.601Z,37.80
2018-05-08T15:06:17.113Z,38.40
2018-05-08T15:08:44.732Z,38.60
2018-05-08T15:11:12.384Z,38.20
2018-05-08T15:13:39.938Z,38.20
2018-05-08T15:16:07.512Z,38.10
2018-05-08T15:18:35.081Z,38.10
2018-05-08T15:21:02.590Z,37.90
2018-05-08T15:23:30.857Z,38.50
2018-05-08T15:25:59.179Z,38.50
2018-05-08T15:28:26.714Z,38.50
2018-05-08T15:30:54.243Z,38.40
2018-05-08T15:33:22.607Z,38.40
2018-05-08T15:35:50.155Z,38.40
2018-05-08T15:38:17.674Z,37.80
2018-05-08T15:40:45.227Z,38.50
2018-05-08T15:43:12.751Z,38.70
2018-05-08T15:45:41.042Z,39.10
2018-05-08T15:48:09.359Z,39.10
2018-05-08T15:50:36.882Z,39.00
2018-05-08T15:53:05.174Z,39.00
2018-05-08T15:55:32.749Z,38.90
2018-05-08T15:58:00.282Z,38.50
2018-05-08T16:00:27.801Z,38.40
2018-05-08T16:02:55.345Z,38.20
2018-05-08T16:05:22.853Z,38.50
2018-05-08T16:07:50.377Z,38.70
2018-05-08T16:10:18.709Z,39.50
2018-05-08T16:12:46.218Z,39.40
2018-05-08T16:15:14.520Z,38.20
2018-05-08T16:17:44.223Z,38.10
2018-05-08T16:20:11.756Z,38.90
2018-05-08T16:22:39.386Z,38.40
2018-05-08T16:25:06.929Z,38.20
2018-05-08T16:27:34.494Z,38.00
2018-05-08T16:30:02.030Z,38.40
2018-05-08T16:32:29.621Z,39.40
2018-05-08T16:34:57.266Z,39.50
2018-05-08T16:37:24.803Z,39.20
2018-05-08T16:39:52.362Z,38.10
2018-05-08T16:42:19.879Z,39.00
2018-05-08T16:44:47.394Z,38.80
2018-05-08T16:47:14.954Z,38.00
2018-05-08T16:49:42.476Z,37.70
2018-05-08T16:52:10.758Z,37.70
2018-05-08T16:54:39.169Z,37.50
2018-05-08T16:57:06.742Z,37.40
2018-05-08T16:59:34.257Z,37.70
2018-05-08T17:02:02.678Z,37.20
2018-05-08T17:04:30.208Z,37.20
2018-05-08T17:06:57.796Z,37.70
2018-05-08T17:09:25.395Z,37.50
2018-05-08T17:11:53.732Z,37.10
2018-05-08T17:14:21.254Z,37.00
2018-05-08T17:16:48.843Z,36.90
2018-05-08T17:19:16.425Z,36.90
2018-05-08T17:21:43.924Z,36.70
2018-05-08T17:24:11.496Z,37.20
2018-05-08T17:26:39.045Z,36.50
2018-05-08T17:29:06.589Z,36.90
2018-05-08T17:31:34.908Z,37.10
2018-05-08T17:34:02.509Z,37.10
2018-05-08T17:36:31.862Z,37.50
2018-05-08T17:38:59.413Z,37.90
2018-05-08T17:41:26.953Z,37.80
2018-05-08T17:43:55.263Z,37.10
2018-05-08T17:46:22.927Z,37.00
2018-05-08T17:48:50.585Z,36.50
2018-05-08T17:51:18.098Z,35.90
2018-05-08T17:53:46.387Z,35.80
2018-05-08T17:56:14.704Z,35.00
2018-05-08T17:58:42.539Z,34.90
2018-05-08T18:01:10.080Z,35.10
2018-05-08T18:03:38.424Z,34.40
2018-05-08T18:06:05.955Z,34.30
2018-05-08T18:08:33.469Z,33.80
2018-05-08T18:11:01.785Z,33.20
2018-05-08T18:13:29.378Z,33.10
2018-05-08T18:15:57.327Z,32.90
2018-05-08T18:18:24.974Z,32.10
2018-05-08T18:20:52.544Z,31.30
2018-05-08T18:23:20.069Z,30.30
2018-05-08T18:25:47.632Z,29.40
2018-05-08T18:28:15.179Z,28.40
2018-05-08T18:30:43.470Z,27.50
2018-05-08T18:33:11.034Z,27.40
2018-05-08T18:35:38.554Z,27.20
2018-05-08T18:38:06.087Z,26.70
2018-05-08T18:40:33.711Z,26.50
2018-05-08T18:43:01.231Z,26.30
2018-05-08T18:45:29.557Z,25.80
2018-05-08T18:47:57.111Z,25.80
2018-05-08T18:50:24.685Z,25.70
2018-05-08T18:52:52.229Z,25.20
2018-05-08T18:55:19.795Z,25.10
2018-05-08T18:57:47.740Z,24.90
2018-05-08T19:00:21.117Z,24.60
2018-05-08T19:02:49.416Z,24.20
2018-05-08T19:05:17.007Z,24.10
2018-05-08T19:07:44.562Z,24.10
2018-05-08T19:10:12.086Z,23.90
2018-05-08T19:12:39.610Z,23.80
2018-05-08T19:15:12.878Z,23.60
2018-05-08T19:17:40.402Z,23.40
2018-05-08T19:20:08.278Z,23.20
2018-05-08T19:22:35.854Z,23.10
2018-05-08T19:25:03.447Z,23.00
2018-05-08T19:27:30.903Z,22.80
2018-05-08T19:30:04.715Z,22.70
2018-05-08T19:32:33.016Z,22.50
2018-05-08T19:35:06.257Z,22.40
2018-05-08T19:37:39.368Z,22.30
2018-05-08T19:40:06.936Z,22.20
2018-05-08T19:42:35.249Z,21.90
2018-05-08T19:45:02.848Z,21.90
2018-05-08T19:47:31.121Z,21.80
2018-05-08T19:49:58.645Z,21.70
2018-05-08T19:52:26.231Z,21.70
2018-05-08T19:54:53.745Z,21.60
2018-05-08T19:57:21.299Z,21.50
2018-05-08T19:59:48.825Z,21.40
2018-05-08T20:02:16.389Z,21.30
2018-05-08T20:04:43.898Z,21.20
2018-05-08T20:07:11.424Z,21.00
2018-05-08T20:09:39.733Z,21.00
2018-05-08T20:12:07.267Z,20.90
2018-05-08T20:14:34.801Z,20.90
2018-05-08T20:17:03.237Z,20.70
2018-05-08T20:19:30.810Z,20.70
2018-05-08T20:21:58.357Z,20.50
2018-05-08T20:24:25.904Z,20.30
2018-05-08T20:26:53.483Z,20.20
2018-05-08T20:29:20.990Z,19.90
2018-05-08T20:31:49.302Z,19.90
2018-05-08T20:34:16.832Z,19.80
2018-05-08T20:36:44.409Z,19.90
2018-05-08T20:39:11.949Z,19.70
2018-05-08T20:41:39.465Z,19.60
2018-05-08T20:44:06.988Z,19.30
2018-05-08T20:46:34.645Z,19.00
2018-05-08T20:49:02.223Z,18.90
2018-05-08T20:51:29.760Z,18.90
2018-05-08T20:53:57.302Z,19.00
2018-05-08T20:56:24.850Z,19.10
2018-05-08T20:58:53.288Z,19.00
2018-05-08T21:01:22.057Z,19.00
2018-05-08T21:03:50.348Z,19.00
2018-05-08T21:06:17.879Z,18.90
2018-05-08T21:08:45.413Z,19.10
2018-05-08T21:11:13.709Z,18.90
2018-05-08T21:13:41.270Z,18.80
2018-05-08T21:16:08.813Z,18.70
2018-05-08T21:18:36.356Z,18.60
2018-05-08T21:21:04.731Z,18.60
2018-05-08T21:23:33.039Z,18.50
2018-05-08T21:26:00.548Z,18.50
2018-05-08T21:28:33.638Z,18.50
2018-05-08T21:31:06.831Z,18.30
2018-05-08T21:33:34.364Z,18.30
2018-05-08T21:36:01.880Z,18.30
2018-05-08T21:38:29.433Z,18.10
2018-05-08T21:40:56.947Z,18.00
2018-05-08T21:43:24.495Z,17.80
2018-05-08T21:45:52.038Z,17.80
2018-05-08T21:48:19.568Z,17.90
2018-05-08T21:50:47.129Z,17.80
2018-05-08T21:53:14.647Z,17.70
2018-05-08T21:55:42.269Z,17.50
2018-05-08T21:58:09.797Z,17.40
2018-05-08T22:00:37.310Z,17.20
2018-05-08T22:03:04.868Z,17.00
2018-05-08T22:05:32.400Z,17.10
2018-05-08T22:07:59.920Z,16.90
2018-05-08T22:10:28.333Z,16.60
2018-05-08T22:12:55.864Z,16.50
2018-05-08T22:15:24.726Z,16.50
2018-05-08T22:17:53.742Z,16.40
2018-05-08T22:20:22.130Z,16.40
2018-05-08T22:22:49.595Z,16.30
2018-05-08T22:25:17.119Z,16.40
2018-05-08T22:27:44.666Z,16.20
2018-05-08T22:30:12.188Z,16.30
2018-05-08T22:32:39.712Z,16.40
2018-05-08T22:35:07.257Z,16.20
2018-05-08T22:37:35.549Z,16.00
2018-05-08T22:40:03.851Z,16.00
2018-05-08T22:42:31.382Z,15.90
2018-05-08T22:44:59.703Z,15.80
2018-05-08T22:47:27.218Z,15.70
2018-05-08T22:49:55.531Z,15.50
2018-05-08T22:52:23.060Z,15.40
2018-05-08T22:54:50.856Z,15.70
2018-05-08T22:57:18.411Z,15.90
2018-05-08T22:59:45.934Z,16.10
2018-05-08T23:02:14.240Z,16.20
2018-05-08T23:04:41.774Z,16.10
2018-05-08T23:07:09.360Z,16.50
2018-05-08T23:09:36.875Z,16.40
2018-05-08T23:12:05.213Z,16.80
2018-05-08T23:14:32.735Z,16.70
2018-05-08T23:17:00.259Z,16.90
2018-05-08T23:19:28.683Z,17.00
2018-05-08T23:21:56.235Z,17.00
2018-05-08T23:24:23.745Z,17.10
2018-05-08T23:26:51.285Z,17.00
2018-05-08T23:29:18.823Z,17.10
2018-05-08T23:31:46.387Z,17.10
2018-05-08T23:34:14.040Z,17.20
2018-05-08T23:36:41.553Z,17.20
2018-05-08T23:39:09.867Z,17.40
2018-05-08T23:41:37.417Z,17.30
2018-05-08T23:44:04.942Z,17.30
2018-05-08T23:46:33.267Z,17.40
2018-05-08T23:49:01.127Z,17.30
2018-05-08T23:51:28.629Z,17.40
2018-05-08T23:53:56.244Z,17.50
2018-05-08T23:56:23.775Z,17.40
2018-05-08T23:58:51.363Z,17.50
